Terminal Aerodrome Forecast
Issued by NWS Chicago, IL

Home | Current Version | Previous Version | Text Only | Print | Product List | Glossary On
Versions: 1 2 3 4 5 6 7 8 9 10 11 12 13 14 15 16 17 18 19 20 21 22 23 24 25 26 27 28 29 30
852
FTUS43 KLOT 200249 AAA
TAFRFD
TAF AMD
KRFD 200249Z 2003/2024 20006KT P6SM FEW250
     FM200700 20010KT P6SM SCT200
     FM201600 21015G24KT P6SM FEW200=

USA.gov is the U.S. government's official web portal to all federal, state and local government web resources and services.